sensor_id;sensor_type;location;lat;lon;timestamp;P1;durP1;ratioP1;P2;durP2;ratioP2
48203;SDS011;33994;50.998;5.864;2023-04-16T00:01:17;11.65;;;3.40;;
48203;SDS011;33994;50.998;5.864;2023-04-16T00:04:20;10.80;;;3.55;;
48203;SDS011;33994;50.998;5.864;2023-04-16T00:07:23;11.60;;;3.50;;
48203;SDS011;33994;50.998;5.864;2023-04-16T00:10:28;6.43;;;3.72;;
48203;SDS011;33994;50.998;5.864;2023-04-16T00:13:31;17.17;;;5.57;;
48203;SDS011;33994;50.998;5.864;2023-04-16T00:16:34;10.10;;;3.92;;
48203;SDS011;33994;50.998;5.864;2023-04-16T00:19:37;16.63;;;4.80;;
48203;SDS011;33994;50.998;5.864;2023-04-16T00:22:40;12.07;;;5.38;;
48203;SDS011;33994;50.998;5.864;2023-04-16T00:25:45;15.40;;;4.78;;
48203;SDS011;33994;50.998;5.864;2023-04-16T00:28:48;11.15;;;4.75;;
48203;SDS011;33994;50.998;5.864;2023-04-16T00:31:51;12.80;;;5.40;;
48203;SDS011;33994;50.998;5.864;2023-04-16T00:34:54;19.42;;;5.25;;
48203;SDS011;33994;50.998;5.864;2023-04-16T00:37:57;11.98;;;5.13;;
48203;SDS011;33994;50.998;5.864;2023-04-16T00:41:01;16.65;;;5.28;;
48203;SDS011;33994;50.998;5.864;2023-04-16T00:44:04;16.92;;;4.88;;
48203;SDS011;33994;50.998;5.864;2023-04-16T00:47:07;11.82;;;5.28;;
48203;SDS011;33994;50.998;5.864;2023-04-16T00:50:11;10.55;;;4.97;;
48203;SDS011;33994;50.998;5.864;2023-04-16T00:53:15;13.20;;;4.75;;
48203;SDS011;33994;50.998;5.864;2023-04-16T00:56:20;12.85;;;5.35;;
48203;SDS011;33994;50.998;5.864;2023-04-16T00:59:24;11.00;;;5.25;;
48203;SDS011;33994;50.998;5.864;2023-04-16T01:02:28;15.57;;;5.90;;
48203;SDS011;33994;50.998;5.864;2023-04-16T01:05:30;14.45;;;5.20;;
48203;SDS011;33994;50.998;5.864;2023-04-16T01:08:33;12.93;;;5.25;;
48203;SDS011;33994;50.998;5.864;2023-04-16T01:11:38;12.48;;;5.57;;
48203;SDS011;33994;50.998;5.864;2023-04-16T01:14:41;11.50;;;5.80;;
48203;SDS011;33994;50.998;5.864;2023-04-16T01:17:44;13.18;;;5.35;;
48203;SDS011;33994;50.998;5.864;2023-04-16T01:20:49;10.85;;;5.28;;
48203;SDS011;33994;50.998;5.864;2023-04-16T01:23:53;12.95;;;5.70;;
48203;SDS011;33994;50.998;5.864;2023-04-16T01:26:56;16.05;;;6.47;;
48203;SDS011;33994;50.998;5.864;2023-04-16T01:29:59;10.05;;;6.07;;
48203;SDS011;33994;50.998;5.864;2023-04-16T01:33:02;11.48;;;6.32;;
48203;SDS011;33994;50.998;5.864;2023-04-16T01:36:07;13.48;;;6.93;;
48203;SDS011;33994;50.998;5.864;2023-04-16T01:39:10;10.35;;;6.82;;
48203;SDS011;33994;50.998;5.864;2023-04-16T01:42:13;18.75;;;8.07;;
48203;SDS011;33994;50.998;5.864;2023-04-16T01:45:16;13.85;;;6.95;;
48203;SDS011;33994;50.998;5.864;2023-04-16T01:48:19;23.10;;;7.75;;
48203;SDS011;33994;50.998;5.864;2023-04-16T01:51:24;23.10;;;8.15;;
48203;SDS011;33994;50.998;5.864;2023-04-16T01:54:27;21.02;;;8.43;;
48203;SDS011;33994;50.998;5.864;2023-04-16T01:57:30;11.57;;;7.03;;
48203;SDS011;33994;50.998;5.864;2023-04-16T02:00:33;16.98;;;7.35;;
48203;SDS011;33994;50.998;5.864;2023-04-16T02:03:36;18.27;;;7.15;;
48203;SDS011;33994;50.998;5.864;2023-04-16T02:06:41;15.63;;;8.00;;
48203;SDS011;33994;50.998;5.864;2023-04-16T02:09:44;18.45;;;7.63;;
48203;SDS011;33994;50.998;5.864;2023-04-16T02:12:47;18.25;;;7.70;;
48203;SDS011;33994;50.998;5.864;2023-04-16T02:15:50;23.23;;;8.13;;
48203;SDS011;33994;50.998;5.864;2023-04-16T02:18:54;18.73;;;8.43;;
48203;SDS011;33994;50.998;5.864;2023-04-16T02:21:58;24.42;;;8.27;;
48203;SDS011;33994;50.998;5.864;2023-04-16T02:25:02;22.92;;;7.95;;
48203;SDS011;33994;50.998;5.864;2023-04-16T02:28:06;17.10;;;8.10;;
48203;SDS011;33994;50.998;5.864;2023-04-16T02:31:09;15.80;;;7.85;;
48203;SDS011;33994;50.998;5.864;2023-04-16T02:34:12;18.02;;;7.82;;
48203;SDS011;33994;50.998;5.864;2023-04-16T02:37:16;17.85;;;7.88;;
48203;SDS011;33994;50.998;5.864;2023-04-16T02:40:19;23.23;;;9.00;;
48203;SDS011;33994;50.998;5.864;2023-04-16T02:43:22;22.40;;;8.45;;
48203;SDS011;33994;50.998;5.864;2023-04-16T02:46:25;16.98;;;9.15;;
48203;SDS011;33994;50.998;5.864;2023-04-16T02:49:28;23.80;;;9.30;;
48203;SDS011;33994;50.998;5.864;2023-04-16T02:52:33;18.13;;;8.27;;
48203;SDS011;33994;50.998;5.864;2023-04-16T02:55:36;19.48;;;8.38;;
48203;SDS011;33994;50.998;5.864;2023-04-16T02:58:39;18.02;;;9.07;;
48203;SDS011;33994;50.998;5.864;2023-04-16T03:01:42;18.25;;;8.02;;
48203;SDS011;33994;50.998;5.864;2023-04-16T03:04:45;25.65;;;8.38;;
48203;SDS011;33994;50.998;5.864;2023-04-16T03:07:49;20.33;;;8.02;;
48203;SDS011;33994;50.998;5.864;2023-04-16T03:10:52;21.58;;;8.77;;
48203;SDS011;33994;50.998;5.864;2023-04-16T03:13:55;17.75;;;9.15;;
48203;SDS011;33994;50.998;5.864;2023-04-16T03:16:58;19.80;;;9.85;;
48203;SDS011;33994;50.998;5.864;2023-04-16T03:20:01;22.95;;;8.95;;
48203;SDS011;33994;50.998;5.864;2023-04-16T03:23:06;16.75;;;8.88;;
48203;SDS011;33994;50.998;5.864;2023-04-16T03:26:09;28.95;;;9.85;;
48203;SDS011;33994;50.998;5.864;2023-04-16T03:29:12;18.40;;;9.10;;
48203;SDS011;33994;50.998;5.864;2023-04-16T03:32:15;19.33;;;9.43;;
48203;SDS011;33994;50.998;5.864;2023-04-16T03:35:18;20.83;;;9.00;;
48203;SDS011;33994;50.998;5.864;2023-04-16T03:38:22;28.50;;;9.13;;
48203;SDS011;33994;50.998;5.864;2023-04-16T03:41:26;22.48;;;8.75;;
48203;SDS011;33994;50.998;5.864;2023-04-16T03:44:29;17.77;;;8.95;;
48203;SDS011;33994;50.998;5.864;2023-04-16T03:47:32;22.17;;;9.85;;
48203;SDS011;33994;50.998;5.864;2023-04-16T03:50:35;23.20;;;9.02;;
48203;SDS011;33994;50.998;5.864;2023-04-16T03:53:40;25.00;;;9.60;;
48203;SDS011;33994;50.998;5.864;2023-04-16T03:56:43;28.67;;;9.45;;
48203;SDS011;33994;50.998;5.864;2023-04-16T03:59:46;24.38;;;9.98;;
48203;SDS011;33994;50.998;5.864;2023-04-16T04:02:49;28.20;;;9.55;;
48203;SDS011;33994;50.998;5.864;2023-04-16T04:05:52;19.60;;;10.38;;
48203;SDS011;33994;50.998;5.864;2023-04-16T04:08:56;17.77;;;9.68;;
48203;SDS011;33994;50.998;5.864;2023-04-16T04:11:59;20.15;;;10.80;;
48203;SDS011;33994;50.998;5.864;2023-04-16T04:15:02;23.20;;;11.10;;
48203;SDS011;33994;50.998;5.864;2023-04-16T04:18:05;21.42;;;10.60;;
48203;SDS011;33994;50.998;5.864;2023-04-16T04:21:08;21.17;;;11.40;;
48203;SDS011;33994;50.998;5.864;2023-04-16T04:24:12;22.08;;;11.90;;
48203;SDS011;33994;50.998;5.864;2023-04-16T04:27:15;26.15;;;11.93;;
48203;SDS011;33994;50.998;5.864;2023-04-16T04:30:18;23.00;;;11.40;;
48203;SDS011;33994;50.998;5.864;2023-04-16T04:33:22;24.63;;;12.60;;
48203;SDS011;33994;50.998;5.864;2023-04-16T04:36:24;27.35;;;11.90;;
48203;SDS011;33994;50.998;5.864;2023-04-16T04:39:29;25.42;;;11.60;;
48203;SDS011;33994;50.998;5.864;2023-04-16T04:42:32;21.80;;;11.98;;
48203;SDS011;33994;50.998;5.864;2023-04-16T04:45:35;24.80;;;12.30;;
48203;SDS011;33994;50.998;5.864;2023-04-16T04:48:38;26.30;;;11.88;;
48203;SDS011;33994;50.998;5.864;2023-04-16T04:51:41;24.48;;;12.48;;
48203;SDS011;33994;50.998;5.864;2023-04-16T04:54:45;22.70;;;12.02;;
48203;SDS011;33994;50.998;5.864;2023-04-16T04:57:48;26.10;;;12.75;;
48203;SDS011;33994;50.998;5.864;2023-04-16T05:00:52;28.80;;;13.00;;
48203;SDS011;33994;50.998;5.864;2023-04-16T05:03:55;27.65;;;12.82;;
48203;SDS011;33994;50.998;5.864;2023-04-16T05:07:00;28.05;;;13.55;;
48203;SDS011;33994;50.998;5.864;2023-04-16T05:10:05;29.88;;;12.93;;
48203;SDS011;33994;50.998;5.864;2023-04-16T05:13:09;27.15;;;13.18;;
48203;SDS011;33994;50.998;5.864;2023-04-16T05:16:12;24.50;;;13.02;;
48203;SDS011;33994;50.998;5.864;2023-04-16T05:19:16;28.23;;;12.98;;
48203;SDS011;33994;50.998;5.864;2023-04-16T05:22:19;26.48;;;11.80;;
48203;SDS011;33994;50.998;5.864;2023-04-16T05:25:23;23.40;;;13.27;;
48203;SDS011;33994;50.998;5.864;2023-04-16T05:28:26;28.55;;;12.40;;
48203;SDS011;33994;50.998;5.864;2023-04-16T05:31:29;24.60;;;11.38;;
48203;SDS011;33994;50.998;5.864;2023-04-16T05:34:32;21.85;;;12.43;;
48203;SDS011;33994;50.998;5.864;2023-04-16T05:37:35;24.58;;;12.35;;
48203;SDS011;33994;50.998;5.864;2023-04-16T05:40:40;24.38;;;12.68;;
48203;SDS011;33994;50.998;5.864;2023-04-16T05:43:42;25.17;;;12.82;;
48203;SDS011;33994;50.998;5.864;2023-04-16T05:46:45;23.17;;;12.60;;
48203;SDS011;33994;50.998;5.864;2023-04-16T05:49:48;26.10;;;12.23;;
48203;SDS011;33994;50.998;5.864;2023-04-16T05:52:51;32.10;;;12.48;;
48203;SDS011;33994;50.998;5.864;2023-04-16T05:55:55;22.40;;;11.77;;
48203;SDS011;33994;50.998;5.864;2023-04-16T05:58:58;28.05;;;14.75;;
48203;SDS011;33994;50.998;5.864;2023-04-16T06:02:01;30.10;;;14.32;;
48203;SDS011;33994;50.998;5.864;2023-04-16T06:05:05;22.75;;;13.68;;
48203;SDS011;33994;50.998;5.864;2023-04-16T06:08:09;25.60;;;12.95;;
48203;SDS011;33994;50.998;5.864;2023-04-16T06:11:13;29.85;;;12.80;;
48203;SDS011;33994;50.998;5.864;2023-04-16T06:14:17;25.17;;;13.55;;
48203;SDS011;33994;50.998;5.864;2023-04-16T06:17:20;23.10;;;12.30;;
48203;SDS011;33994;50.998;5.864;2023-04-16T06:20:23;27.85;;;13.00;;
48203;SDS011;33994;50.998;5.864;2023-04-16T06:23:26;25.65;;;12.63;;
48203;SDS011;33994;50.998;5.864;2023-04-16T06:26:30;24.27;;;12.98;;
48203;SDS011;33994;50.998;5.864;2023-04-16T06:29:33;24.10;;;13.00;;
48203;SDS011;33994;50.998;5.864;2023-04-16T06:32:37;26.83;;;13.80;;
48203;SDS011;33994;50.998;5.864;2023-04-16T06:35:40;25.35;;;13.80;;
48203;SDS011;33994;50.998;5.864;2023-04-16T06:38:43;30.85;;;14.38;;
48203;SDS011;33994;50.998;5.864;2023-04-16T06:41:47;28.63;;;13.68;;
48203;SDS011;33994;50.998;5.864;2023-04-16T06:44:50;28.27;;;13.70;;
48203;SDS011;33994;50.998;5.864;2023-04-16T06:47:53;27.83;;;13.15;;
48203;SDS011;33994;50.998;5.864;2023-04-16T06:50:56;27.98;;;14.30;;
48203;SDS011;33994;50.998;5.864;2023-04-16T06:54:00;28.50;;;15.27;;
48203;SDS011;33994;50.998;5.864;2023-04-16T06:57:04;29.38;;;15.02;;
48203;SDS011;33994;50.998;5.864;2023-04-16T07:00:07;29.65;;;14.68;;
48203;SDS011;33994;50.998;5.864;2023-04-16T07:03:11;28.38;;;14.25;;
48203;SDS011;33994;50.998;5.864;2023-04-16T07:06:14;31.23;;;14.50;;
48203;SDS011;33994;50.998;5.864;2023-04-16T07:09:17;27.60;;;13.15;;
48203;SDS011;33994;50.998;5.864;2023-04-16T07:12:21;39.30;;;15.05;;
48203;SDS011;33994;50.998;5.864;2023-04-16T07:15:25;24.08;;;13.43;;
48203;SDS011;33994;50.998;5.864;2023-04-16T07:18:28;31.15;;;13.57;;
48203;SDS011;33994;50.998;5.864;2023-04-16T07:21:31;26.80;;;12.23;;
48203;SDS011;33994;50.998;5.864;2023-04-16T07:24:35;30.77;;;12.60;;
48203;SDS011;33994;50.998;5.864;2023-04-16T07:27:39;24.98;;;13.32;;
48203;SDS011;33994;50.998;5.864;2023-04-16T07:30:42;23.75;;;13.52;;
48203;SDS011;33994;50.998;5.864;2023-04-16T07:33:45;24.15;;;12.40;;
48203;SDS011;33994;50.998;5.864;2023-04-16T07:36:48;27.92;;;13.55;;
48203;SDS011;33994;50.998;5.864;2023-04-16T07:39:51;29.40;;;13.65;;
48203;SDS011;33994;50.998;5.864;2023-04-16T07:42:55;30.40;;;13.30;;
48203;SDS011;33994;50.998;5.864;2023-04-16T07:45:58;24.20;;;12.13;;
48203;SDS011;33994;50.998;5.864;2023-04-16T07:49:01;26.13;;;12.68;;
48203;SDS011;33994;50.998;5.864;2023-04-16T07:52:05;27.85;;;12.35;;
48203;SDS011;33994;50.998;5.864;2023-04-16T07:55:08;29.20;;;13.68;;
48203;SDS011;33994;50.998;5.864;2023-04-16T07:58:13;29.92;;;12.75;;
48203;SDS011;33994;50.998;5.864;2023-04-16T08:01:16;28.05;;;11.88;;
48203;SDS011;33994;50.998;5.864;2023-04-16T08:04:19;28.25;;;12.30;;
48203;SDS011;33994;50.998;5.864;2023-04-16T08:07:23;28.50;;;11.95;;
48203;SDS011;33994;50.998;5.864;2023-04-16T08:10:26;35.28;;;13.43;;
48203;SDS011;33994;50.998;5.864;2023-04-16T08:13:31;22.58;;;12.13;;
48203;SDS011;33994;50.998;5.864;2023-04-16T08:16:35;24.23;;;12.10;;
48203;SDS011;33994;50.998;5.864;2023-04-16T08:19:38;22.40;;;12.27;;
48203;SDS011;33994;50.998;5.864;2023-04-16T08:22:42;25.25;;;12.38;;
48203;SDS011;33994;50.998;5.864;2023-04-16T08:25:46;25.17;;;11.15;;
48203;SDS011;33994;50.998;5.864;2023-04-16T08:28:50;24.73;;;13.70;;
48203;SDS011;33994;50.998;5.864;2023-04-16T08:31:53;21.08;;;10.18;;
48203;SDS011;33994;50.998;5.864;2023-04-16T08:34:57;25.38;;;11.38;;
48203;SDS011;33994;50.998;5.864;2023-04-16T08:38:00;24.50;;;11.23;;
48203;SDS011;33994;50.998;5.864;2023-04-16T08:41:05;22.08;;;10.93;;
48203;SDS011;33994;50.998;5.864;2023-04-16T08:44:17;19.67;;;9.70;;
48203;SDS011;33994;50.998;5.864;2023-04-16T08:47:22;20.55;;;10.85;;
48203;SDS011;33994;50.998;5.864;2023-04-16T08:50:27;23.63;;;10.32;;
48203;SDS011;33994;50.998;5.864;2023-04-16T08:53:35;22.55;;;10.27;;
48203;SDS011;33994;50.998;5.864;2023-04-16T08:56:44;16.15;;;9.25;;
48203;SDS011;33994;50.998;5.864;2023-04-16T08:59:51;15.88;;;9.77;;
48203;SDS011;33994;50.998;5.864;2023-04-16T09:02:56;16.42;;;8.35;;
48203;SDS011;33994;50.998;5.864;2023-04-16T09:06:00;17.63;;;8.43;;
48203;SDS011;33994;50.998;5.864;2023-04-16T09:09:06;18.65;;;9.32;;
48203;SDS011;33994;50.998;5.864;2023-04-16T09:12:10;15.38;;;9.38;;
48203;SDS011;33994;50.998;5.864;2023-04-16T09:15:15;14.38;;;8.05;;
48203;SDS011;33994;50.998;5.864;2023-04-16T09:18:18;14.52;;;8.50;;
48203;SDS011;33994;50.998;5.864;2023-04-16T09:21:21;15.88;;;8.88;;
48203;SDS011;33994;50.998;5.864;2023-04-16T09:24:24;17.65;;;8.63;;
48203;SDS011;33994;50.998;5.864;2023-04-16T09:27:27;14.27;;;8.55;;
48203;SDS011;33994;50.998;5.864;2023-04-16T09:30:33;14.82;;;8.07;;
48203;SDS011;33994;50.998;5.864;2023-04-16T09:33:36;16.73;;;8.40;;
48203;SDS011;33994;50.998;5.864;2023-04-16T09:36:39;19.83;;;8.95;;
48203;SDS011;33994;50.998;5.864;2023-04-16T09:39:43;15.10;;;8.35;;
48203;SDS011;33994;50.998;5.864;2023-04-16T09:42:47;19.80;;;8.95;;
48203;SDS011;33994;50.998;5.864;2023-04-16T09:45:53;18.13;;;8.82;;
48203;SDS011;33994;50.998;5.864;2023-04-16T09:48:57;15.05;;;8.27;;
48203;SDS011;33994;50.998;5.864;2023-04-16T09:52:00;20.35;;;8.85;;
48203;SDS011;33994;50.998;5.864;2023-04-16T09:55:03;17.75;;;9.07;;
48203;SDS011;33994;50.998;5.864;2023-04-16T09:58:07;14.55;;;8.57;;
48203;SDS011;33994;50.998;5.864;2023-04-16T10:01:12;19.25;;;10.07;;
48203;SDS011;33994;50.998;5.864;2023-04-16T10:04:15;19.85;;;10.25;;
48203;SDS011;33994;50.998;5.864;2023-04-16T10:07:18;20.33;;;9.68;;
48203;SDS011;33994;50.998;5.864;2023-04-16T10:10:21;19.88;;;10.50;;
48203;SDS011;33994;50.998;5.864;2023-04-16T10:13:25;15.88;;;9.32;;
48203;SDS011;33994;50.998;5.864;2023-04-16T10:16:29;18.73;;;9.65;;
48203;SDS011;33994;50.998;5.864;2023-04-16T10:19:33;18.73;;;10.18;;
48203;SDS011;33994;50.998;5.864;2023-04-16T10:22:37;20.30;;;9.57;;
48203;SDS011;33994;50.998;5.864;2023-04-16T10:25:41;19.92;;;9.95;;
48203;SDS011;33994;50.998;5.864;2023-04-16T10:28:45;23.42;;;11.48;;
48203;SDS011;33994;50.998;5.864;2023-04-16T10:31:50;26.65;;;12.00;;
48203;SDS011;33994;50.998;5.864;2023-04-16T10:34:54;25.65;;;11.70;;
48203;SDS011;33994;50.998;5.864;2023-04-16T10:38:01;25.67;;;12.38;;
48203;SDS011;33994;50.998;5.864;2023-04-16T10:41:24;28.67;;;14.15;;
48203;SDS011;33994;50.998;5.864;2023-04-16T10:44:27;24.92;;;12.85;;
48203;SDS011;33994;50.998;5.864;2023-04-16T10:47:34;26.38;;;13.45;;
48203;SDS011;33994;50.998;5.864;2023-04-16T10:50:41;24.17;;;13.75;;
48203;SDS011;33994;50.998;5.864;2023-04-16T10:53:44;28.90;;;15.40;;
48203;SDS011;33994;50.998;5.864;2023-04-16T10:56:48;35.05;;;15.30;;
48203;SDS011;33994;50.998;5.864;2023-04-16T10:59:53;32.83;;;15.23;;
48203;SDS011;33994;50.998;5.864;2023-04-16T11:02:58;34.05;;;15.85;;
48203;SDS011;33994;50.998;5.864;2023-04-16T11:06:11;40.97;;;16.65;;
48203;SDS011;33994;50.998;5.864;2023-04-16T11:12:49;28.98;;;16.35;;
48203;SDS011;33994;50.998;5.864;2023-04-16T11:15:55;29.70;;;15.50;;
48203;SDS011;33994;50.998;5.864;2023-04-16T11:19:00;34.08;;;15.82;;
48203;SDS011;33994;50.998;5.864;2023-04-16T11:22:04;27.88;;;13.90;;
48203;SDS011;33994;50.998;5.864;2023-04-16T11:25:07;32.58;;;14.93;;
48203;SDS011;33994;50.998;5.864;2023-04-16T11:28:10;39.70;;;15.63;;
48203;SDS011;33994;50.998;5.864;2023-04-16T11:31:13;37.58;;;16.35;;
48203;SDS011;33994;50.998;5.864;2023-04-16T11:34:18;33.88;;;17.42;;
48203;SDS011;33994;50.998;5.864;2023-04-16T11:37:30;33.17;;;16.02;;
48203;SDS011;33994;50.998;5.864;2023-04-16T11:40:33;31.90;;;16.67;;
48203;SDS011;33994;50.998;5.864;2023-04-16T11:43:37;30.45;;;16.35;;
48203;SDS011;33994;50.998;5.864;2023-04-16T11:46:40;26.60;;;15.20;;
48203;SDS011;33994;50.998;5.864;2023-04-16T11:49:44;33.08;;;15.23;;
48203;SDS011;33994;50.998;5.864;2023-04-16T11:52:47;35.00;;;15.77;;
48203;SDS011;33994;50.998;5.864;2023-04-16T11:55:51;34.08;;;16.63;;
48203;SDS011;33994;50.998;5.864;2023-04-16T11:59:07;34.28;;;16.13;;
48203;SDS011;33994;50.998;5.864;2023-04-16T12:02:11;31.20;;;15.40;;
48203;SDS011;33994;50.998;5.864;2023-04-16T12:08:37;33.15;;;16.63;;
48203;SDS011;33994;50.998;5.864;2023-04-16T12:11:40;31.17;;;17.00;;
48203;SDS011;33994;50.998;5.864;2023-04-16T12:14:48;32.80;;;15.57;;
48203;SDS011;33994;50.998;5.864;2023-04-16T12:18:04;34.05;;;16.80;;
48203;SDS011;33994;50.998;5.864;2023-04-16T12:21:09;34.28;;;16.80;;
48203;SDS011;33994;50.998;5.864;2023-04-16T12:24:13;27.75;;;14.88;;
48203;SDS011;33994;50.998;5.864;2023-04-16T12:27:17;31.85;;;16.23;;
48203;SDS011;33994;50.998;5.864;2023-04-16T12:30:21;32.78;;;16.20;;
48203;SDS011;33994;50.998;5.864;2023-04-16T12:33:24;31.20;;;15.90;;
48203;SDS011;33994;50.998;5.864;2023-04-16T12:36:29;30.80;;;15.00;;
48203;SDS011;33994;50.998;5.864;2023-04-16T12:39:32;31.58;;;15.93;;
48203;SDS011;33994;50.998;5.864;2023-04-16T12:42:35;28.13;;;15.57;;
48203;SDS011;33994;50.998;5.864;2023-04-16T12:45:38;30.00;;;16.23;;
48203;SDS011;33994;50.998;5.864;2023-04-16T12:48:42;31.58;;;16.10;;
48203;SDS011;33994;50.998;5.864;2023-04-16T12:51:46;34.63;;;17.73;;
48203;SDS011;33994;50.998;5.864;2023-04-16T12:54:49;34.55;;;16.25;;
48203;SDS011;33994;50.998;5.864;2023-04-16T12:57:53;31.92;;;15.65;;
48203;SDS011;33994;50.998;5.864;2023-04-16T13:00:56;33.28;;;15.65;;
48203;SDS011;33994;50.998;5.864;2023-04-16T13:03:59;31.77;;;15.40;;
48203;SDS011;33994;50.998;5.864;2023-04-16T13:07:03;32.80;;;16.50;;
48203;SDS011;33994;50.998;5.864;2023-04-16T13:10:07;33.17;;;15.98;;
48203;SDS011;33994;50.998;5.864;2023-04-16T13:13:11;32.63;;;14.90;;
48203;SDS011;33994;50.998;5.864;2023-04-16T13:16:14;35.03;;;17.75;;
48203;SDS011;33994;50.998;5.864;2023-04-16T13:19:17;34.88;;;18.00;;
48203;SDS011;33994;50.998;5.864;2023-04-16T13:22:21;33.17;;;17.00;;
48203;SDS011;33994;50.998;5.864;2023-04-16T13:25:24;32.63;;;17.67;;
48203;SDS011;33994;50.998;5.864;2023-04-16T13:28:27;31.50;;;16.30;;
48203;SDS011;33994;50.998;5.864;2023-04-16T13:31:31;40.83;;;19.27;;
48203;SDS011;33994;50.998;5.864;2023-04-16T13:34:34;29.90;;;17.38;;
48203;SDS011;33994;50.998;5.864;2023-04-16T13:37:39;33.13;;;16.85;;
48203;SDS011;33994;50.998;5.864;2023-04-16T13:40:42;37.38;;;16.73;;
48203;SDS011;33994;50.998;5.864;2023-04-16T13:43:46;32.35;;;17.00;;
48203;SDS011;33994;50.998;5.864;2023-04-16T13:46:49;35.72;;;16.58;;
48203;SDS011;33994;50.998;5.864;2023-04-16T13:49:52;36.42;;;17.45;;
48203;SDS011;33994;50.998;5.864;2023-04-16T13:52:56;37.88;;;19.52;;
48203;SDS011;33994;50.998;5.864;2023-04-16T13:55:59;36.00;;;16.75;;
48203;SDS011;33994;50.998;5.864;2023-04-16T13:59:03;30.75;;;17.48;;
48203;SDS011;33994;50.998;5.864;2023-04-16T14:02:06;35.30;;;15.93;;
48203;SDS011;33994;50.998;5.864;2023-04-16T14:05:11;33.40;;;16.05;;
48203;SDS011;33994;50.998;5.864;2023-04-16T14:08:16;26.85;;;15.13;;
48203;SDS011;33994;50.998;5.864;2023-04-16T14:11:19;32.17;;;16.55;;
48203;SDS011;33994;50.998;5.864;2023-04-16T14:14:22;34.78;;;17.45;;
48203;SDS011;33994;50.998;5.864;2023-04-16T14:17:25;32.30;;;16.85;;
48203;SDS011;33994;50.998;5.864;2023-04-16T14:20:29;26.80;;;15.25;;
48203;SDS011;33994;50.998;5.864;2023-04-16T14:23:33;29.60;;;16.00;;
48203;SDS011;33994;50.998;5.864;2023-04-16T14:26:37;30.50;;;15.77;;
48203;SDS011;33994;50.998;5.864;2023-04-16T14:29:40;32.85;;;15.45;;
48203;SDS011;33994;50.998;5.864;2023-04-16T14:32:43;29.90;;;17.05;;
48203;SDS011;33994;50.998;5.864;2023-04-16T14:35:46;32.25;;;15.85;;
48203;SDS011;33994;50.998;5.864;2023-04-16T14:38:51;27.95;;;15.63;;
48203;SDS011;33994;50.998;5.864;2023-04-16T14:41:53;33.55;;;17.00;;
48203;SDS011;33994;50.998;5.864;2023-04-16T14:44:56;31.15;;;16.85;;
48203;SDS011;33994;50.998;5.864;2023-04-16T14:47:59;29.08;;;16.65;;
48203;SDS011;33994;50.998;5.864;2023-04-16T14:51:03;31.20;;;16.33;;
48203;SDS011;33994;50.998;5.864;2023-04-16T14:54:07;36.65;;;17.63;;
48203;SDS011;33994;50.998;5.864;2023-04-16T14:57:10;33.55;;;18.90;;
48203;SDS011;33994;50.998;5.864;2023-04-16T15:00:13;33.92;;;16.88;;
48203;SDS011;33994;50.998;5.864;2023-04-16T15:03:17;28.33;;;16.92;;
48203;SDS011;33994;50.998;5.864;2023-04-16T15:06:20;27.95;;;15.82;;
48203;SDS011;33994;50.998;5.864;2023-04-16T15:09:25;30.67;;;15.95;;
48203;SDS011;33994;50.998;5.864;2023-04-16T15:12:28;33.60;;;16.35;;
48203;SDS011;33994;50.998;5.864;2023-04-16T15:15:31;36.20;;;17.92;;
48203;SDS011;33994;50.998;5.864;2023-04-16T15:18:34;31.98;;;17.05;;
48203;SDS011;33994;50.998;5.864;2023-04-16T15:21:38;30.35;;;17.10;;
48203;SDS011;33994;50.998;5.864;2023-04-16T15:24:42;31.13;;;16.65;;
48203;SDS011;33994;50.998;5.864;2023-04-16T15:27:45;30.67;;;17.92;;
48203;SDS011;33994;50.998;5.864;2023-04-16T15:30:48;30.23;;;16.25;;
48203;SDS011;33994;50.998;5.864;2023-04-16T15:33:52;29.70;;;15.43;;
48203;SDS011;33994;50.998;5.864;2023-04-16T15:36:55;27.85;;;15.70;;
48203;SDS011;33994;50.998;5.864;2023-04-16T15:40:00;30.58;;;15.25;;
48203;SDS011;33994;50.998;5.864;2023-04-16T15:43:03;29.35;;;16.40;;
48203;SDS011;33994;50.998;5.864;2023-04-16T15:46:07;29.38;;;16.15;;
48203;SDS011;33994;50.998;5.864;2023-04-16T15:49:10;27.58;;;14.75;;
48203;SDS011;33994;50.998;5.864;2023-04-16T15:52:14;27.58;;;16.05;;
48203;SDS011;33994;50.998;5.864;2023-04-16T15:55:18;29.08;;;16.27;;
48203;SDS011;33994;50.998;5.864;2023-04-16T15:58:21;32.28;;;16.20;;
48203;SDS011;33994;50.998;5.864;2023-04-16T16:01:24;26.80;;;15.68;;
48203;SDS011;33994;50.998;5.864;2023-04-16T16:04:27;26.42;;;15.80;;
48203;SDS011;33994;50.998;5.864;2023-04-16T16:07:30;27.75;;;14.70;;
48203;SDS011;33994;50.998;5.864;2023-04-16T16:10:35;29.88;;;16.20;;
48203;SDS011;33994;50.998;5.864;2023-04-16T16:13:38;25.60;;;15.25;;
48203;SDS011;33994;50.998;5.864;2023-04-16T16:16:41;26.23;;;14.95;;
48203;SDS011;33994;50.998;5.864;2023-04-16T16:19:44;35.20;;;17.25;;
48203;SDS011;33994;50.998;5.864;2023-04-16T16:22:47;25.48;;;15.70;;
48203;SDS011;33994;50.998;5.864;2023-04-16T16:25:52;22.92;;;14.45;;
48203;SDS011;33994;50.998;5.864;2023-04-16T16:28:56;27.20;;;14.27;;
48203;SDS011;33994;50.998;5.864;2023-04-16T16:31:59;26.00;;;15.13;;
48203;SDS011;33994;50.998;5.864;2023-04-16T16:35:02;32.83;;;15.18;;
48203;SDS011;33994;50.998;5.864;2023-04-16T16:38:05;24.58;;;15.05;;
48203;SDS011;33994;50.998;5.864;2023-04-16T16:41:10;28.50;;;14.82;;
48203;SDS011;33994;50.998;5.864;2023-04-16T16:44:13;24.65;;;15.73;;
48203;SDS011;33994;50.998;5.864;2023-04-16T16:47:16;27.50;;;15.80;;
48203;SDS011;33994;50.998;5.864;2023-04-16T16:50:20;26.52;;;14.70;;
48203;SDS011;33994;50.998;5.864;2023-04-16T16:53:23;27.50;;;16.10;;
48203;SDS011;33994;50.998;5.864;2023-04-16T16:56:27;22.75;;;14.45;;
48203;SDS011;33994;50.998;5.864;2023-04-16T16:59:30;23.27;;;15.00;;
48203;SDS011;33994;50.998;5.864;2023-04-16T17:02:33;24.45;;;14.95;;
48203;SDS011;33994;50.998;5.864;2023-04-16T17:05:36;23.33;;;15.48;;
48203;SDS011;33994;50.998;5.864;2023-04-16T17:08:39;24.92;;;13.93;;
48203;SDS011;33994;50.998;5.864;2023-04-16T17:11:44;24.42;;;13.77;;
48203;SDS011;33994;50.998;5.864;2023-04-16T17:14:49;26.27;;;15.02;;
48203;SDS011;33994;50.998;5.864;2023-04-16T17:17:52;28.50;;;16.45;;
48203;SDS011;33994;50.998;5.864;2023-04-16T17:20:55;23.63;;;13.50;;
48203;SDS011;33994;50.998;5.864;2023-04-16T17:23:58;25.83;;;15.20;;
48203;SDS011;33994;50.998;5.864;2023-04-16T17:27:03;25.05;;;14.75;;
48203;SDS011;33994;50.998;5.864;2023-04-16T17:30:06;26.92;;;14.45;;
48203;SDS011;33994;50.998;5.864;2023-04-16T17:33:10;23.42;;;14.52;;
48203;SDS011;33994;50.998;5.864;2023-04-16T17:36:13;25.30;;;14.18;;
48203;SDS011;33994;50.998;5.864;2023-04-16T17:39:17;27.38;;;14.63;;
48203;SDS011;33994;50.998;5.864;2023-04-16T17:42:21;23.95;;;13.23;;
48203;SDS011;33994;50.998;5.864;2023-04-16T17:45:24;23.92;;;13.98;;
48203;SDS011;33994;50.998;5.864;2023-04-16T17:48:28;24.35;;;14.80;;
48203;SDS011;33994;50.998;5.864;2023-04-16T17:51:31;23.67;;;13.57;;
48203;SDS011;33994;50.998;5.864;2023-04-16T17:54:34;24.60;;;14.07;;
48203;SDS011;33994;50.998;5.864;2023-04-16T17:57:38;19.92;;;13.52;;
48203;SDS011;33994;50.998;5.864;2023-04-16T18:00:41;24.23;;;13.73;;
48203;SDS011;33994;50.998;5.864;2023-04-16T18:03:44;24.52;;;14.35;;
48203;SDS011;33994;50.998;5.864;2023-04-16T18:06:46;27.73;;;15.18;;